Shin Mei Maru — JG5617 — position and weather

sailwx.info

Track history (hours):
 
Tides and Currents Weather Stations Pressure Air Temp Water Temp Dewpoint Dewpoint Depression Visibility Wind Speed Wind Dir Waves Ship Positions

Shin Mei Maru

Last reported at 2016-Sep-28 16:33 UTC. Time now 2016-Sep-28 20:29 UTC.
Position N 35°15' E 140°38'.

Length 160 m; draft 6.8 m.

Type: Cargo ship. MMSI: 431100922.

Date/timePositionNaut miles runAvg speedWind from/ knotsBaromVisibWave heightAir tempDewpointWater temp
2016-Sep-28 16:33N 35°15' E 140°38'2018.5
2016-Sep-28 15:30N 35°01' E 140°20'3010.2
2016-Sep-28 12:33N 35°12' E 139°46'25 6.3
2016-Sep-28 08:29N 35°38' E 139°46'0 0.0
2016-Sep-28 03:32N 35°38' E 139°46'0 0.0
2016-Sep-28 02:32N 35°38' E 139°46'0 0.0
2016-Sep-28 01:29N 35°38' E 139°46'0 0.0
2016-Sep-27 23:32N 35°38' E 139°46'4511.4
2016-Sep-27 19:33N 34°53' E 139°47'6613.2
2016-Sep-27 14:33N 35°32' E 140°52'1615.7
2016-Sep-27 13:33N 35°46' E 141°00'  
2016-Sep-23 19:32N 35°24' E 140°46'3718.9
2016-Sep-23 17:33N 34°58' E 140°13'1918.8
2016-Sep-23 16:33N 34°48' E 139°53'1919.3
2016-Sep-23 15:33N 34°39' E 139°32'204 5.6
2016-Sep-22 03:30N 34°37' E 135°25'3913.2
2016-Sep-22 00:33N 34°04' E 134°59'23015.0
2016-Sep-21 09:10N 34°59' E 139°31'1117.4
2016-Sep-21 08:33N 35°06' E 139°41'3310.7
2016-Sep-21 05:30N 35°38' E 139°46'0 0.0
2016-Sep-21 03:33N 35°38' E 139°46'9 8.9
2016-Sep-21 02:34N 35°31' E 139°52'  
Track history (hours):
 
Tides and Currents Weather Stations Pressure Air Temp Water Temp Dewpoint Dewpoint Depression Visibility Wind Speed Wind Dir Waves Ship Positions

Shin Mei Maru

Last reported at 2016-Sep-28 16:33 UTC. Time now 2016-Sep-28 20:29 UTC.
Position N 35°15' E 140°38'.

Length 160 m; draft 6.8 m.

Type: Cargo ship. MMSI: 431100922.

Date/timePositionNaut miles runAvg speedWind from/ knotsBaromVisibWave heightAir tempDewpointWater temp
2016-Sep-28 16:33N 35°15' E 140°38'2018.5
2016-Sep-28 15:30N 35°01' E 140°20'3010.2
2016-Sep-28 12:33N 35°12' E 139°46'25 6.3
2016-Sep-28 08:29N 35°38' E 139°46'0 0.0
2016-Sep-28 03:32N 35°38' E 139°46'0 0.0
2016-Sep-28 02:32N 35°38' E 139°46'0 0.0
2016-Sep-28 01:29N 35°38' E 139°46'0 0.0
2016-Sep-27 23:32N 35°38' E 139°46'4511.4
2016-Sep-27 19:33N 34°53' E 139°47'6613.2
2016-Sep-27 14:33N 35°32' E 140°52'1615.7
2016-Sep-27 13:33N 35°46' E 141°00'  
2016-Sep-23 19:32N 35°24' E 140°46'3718.9
2016-Sep-23 17:33N 34°58' E 140°13'1918.8
2016-Sep-23 16:33N 34°48' E 139°53'1919.3
2016-Sep-23 15:33N 34°39' E 139°32'204 5.6
2016-Sep-22 03:30N 34°37' E 135°25'3913.2
2016-Sep-22 00:33N 34°04' E 134°59'23015.0
2016-Sep-21 09:10N 34°59' E 139°31'1117.4
2016-Sep-21 08:33N 35°06' E 139°41'3310.7
2016-Sep-21 05:30N 35°38' E 139°46'0 0.0
2016-Sep-21 03:33N 35°38' E 139°46'9 8.9
2016-Sep-21 02:34N 35°31' E 139°52'  

Dump ship's entire track history